createdAt,value
2022-10-08T00:01:21.868Z,12.20
2022-10-08T00:03:53.353Z,12.20
2022-10-08T00:06:25.888Z,12.10
2022-10-08T00:08:59.001Z,12.20
2022-10-08T00:11:32.198Z,12.10
2022-10-08T00:14:02.066Z,12.10
2022-10-08T00:16:31.004Z,12.10
2022-10-08T00:19:02.217Z,12.10
2022-10-08T00:21:32.630Z,12.00
2022-10-08T00:24:02.230Z,12.00
2022-10-08T00:26:31.556Z,12.00
2022-10-08T00:29:02.325Z,12.00
2022-10-08T00:31:33.368Z,12.00
2022-10-08T00:34:03.511Z,11.90
2022-10-08T00:36:32.258Z,11.90
2022-10-08T00:39:06.027Z,11.90
2022-10-08T00:41:37.327Z,11.90
2022-10-08T00:44:43.269Z,11.90
2022-10-08T00:47:41.888Z,11.90
2022-10-08T00:50:14.568Z,11.90
2022-10-08T00:52:46.741Z,12.00
2022-10-08T00:55:16.878Z,12.00
2022-10-08T00:57:44.810Z,12.00
2022-10-08T01:00:19.211Z,12.00
2022-10-08T01:02:46.961Z,12.00
2022-10-08T01:05:17.990Z,12.00
2022-10-08T01:07:45.364Z,12.00
2022-10-08T01:10:34.612Z,12.00
2022-10-08T01:13:24.970Z,11.90
2022-10-08T01:15:57.903Z,11.90
2022-10-08T01:18:56.875Z,11.90
2022-10-08T01:21:49.358Z,11.90
2022-10-08T01:24:44.940Z,11.90
2022-10-08T01:27:29.471Z,12.00
2022-10-08T01:30:04.237Z,12.00
2022-10-08T01:32:38.946Z,12.10
2022-10-08T01:35:28.682Z,12.10
2022-10-08T01:38:00.430Z,12.10
2022-10-08T01:40:40.193Z,12.00
2022-10-08T01:43:11.305Z,12.00
2022-10-08T01:45:44.912Z,12.00
2022-10-08T01:48:18.606Z,12.00
2022-10-08T01:51:04.847Z,12.00
2022-10-08T01:53:37.720Z,12.00
2022-10-08T01:56:07.870Z,11.90
2022-10-08T01:58:54.442Z,11.90
2022-10-08T02:01:44.779Z,11.80
2022-10-08T02:04:30.762Z,11.80
2022-10-08T02:07:05.789Z,11.80
2022-10-08T02:09:35.935Z,11.80
2022-10-08T02:12:04.057Z,11.90
2022-10-08T02:14:32.884Z,11.90
2022-10-08T02:17:24.427Z,11.90
2022-10-08T02:20:13.848Z,11.90
2022-10-08T02:22:55.685Z,12.00
2022-10-08T02:25:33.854Z,12.00
2022-10-08T02:28:26.097Z,12.10
2022-10-08T02:31:04.121Z,12.10
2022-10-08T02:33:38.047Z,12.20
2022-10-08T02:36:08.575Z,12.20
2022-10-08T02:38:40.643Z,12.20
2022-10-08T02:41:10.466Z,12.30
2022-10-08T02:43:43.362Z,12.30
2022-10-08T02:46:22.374Z,12.30
2022-10-08T02:49:02.659Z,12.30
2022-10-08T02:51:32.708Z,12.30
2022-10-08T02:54:02.550Z,12.40
2022-10-08T02:56:38.920Z,12.40
2022-10-08T02:59:07.013Z,12.50
2022-10-08T03:01:37.840Z,12.50
2022-10-08T03:04:09.501Z,12.60
2022-10-08T03:06:37.302Z,12.70
2022-10-08T03:09:06.922Z,12.70
2022-10-08T03:11:35.615Z,12.70
2022-10-08T03:14:06.259Z,12.70
2022-10-08T03:16:42.690Z,12.80
2022-10-08T03:19:12.972Z,12.80
2022-10-08T03:21:42.910Z,12.80
2022-10-08T03:24:12.690Z,12.90
2022-10-08T03:26:40.278Z,12.80
2022-10-08T03:29:08.313Z,12.80
2022-10-08T03:31:36.032Z,12.90
2022-10-08T03:34:03.784Z,12.90
2022-10-08T03:36:31.862Z,12.90
2022-10-08T03:38:59.286Z,12.90
2022-10-08T03:41:27.179Z,12.90
2022-10-08T03:43:54.542Z,13.00
2022-10-08T03:46:21.929Z,13.00
2022-10-08T03:48:50.258Z,13.00
2022-10-08T03:51:19.209Z,13.00
2022-10-08T03:53:46.894Z,13.10
2022-10-08T03:56:17.719Z,13.10
2022-10-08T03:58:45.631Z,13.10
2022-10-08T04:01:16.080Z,13.10
2022-10-08T04:03:45.453Z,13.10
2022-10-08T04:06:13.016Z,13.20
2022-10-08T04:08:40.658Z,13.20
2022-10-08T04:11:10.729Z,13.20
2022-10-08T04:13:38.995Z,13.20
2022-10-08T04:16:10.965Z,13.20
2022-10-08T04:18:38.421Z,13.20
2022-10-08T04:21:08.516Z,13.20
2022-10-08T04:23:37.872Z,13.20
2022-10-08T04:26:05.672Z,13.20
2022-10-08T04:28:38.285Z,13.20
2022-10-08T04:31:08.484Z,13.30
2022-10-08T04:33:36.804Z,13.30
2022-10-08T04:36:09.226Z,13.30
2022-10-08T04:38:37.030Z,13.30
2022-10-08T04:41:17.053Z,13.30
2022-10-08T04:43:46.016Z,13.40
2022-10-08T04:46:16.128Z,13.40
2022-10-08T04:48:52.153Z,13.40
2022-10-08T04:51:20.888Z,13.30
2022-10-08T04:53:48.271Z,13.40
2022-10-08T04:56:21.054Z,13.40
2022-10-08T04:58:49.074Z,13.40
2022-10-08T05:01:19.014Z,13.40
2022-10-08T05:03:48.500Z,13.40
2022-10-08T05:06:17.855Z,13.40
2022-10-08T05:08:46.123Z,13.50
2022-10-08T05:11:14.562Z,13.50
2022-10-08T05:13:42.593Z,13.50
2022-10-08T05:16:14.492Z,13.50
2022-10-08T05:18:42.399Z,13.50
2022-10-08T05:21:13.053Z,13.50
2022-10-08T05:23:42.773Z,13.60
2022-10-08T05:26:41.435Z,13.50
2022-10-08T05:29:12.727Z,13.50
2022-10-08T05:31:40.072Z,13.40
2022-10-08T05:34:07.448Z,13.40
2022-10-08T05:36:35.192Z,13.50
2022-10-08T05:39:04.853Z,13.50
2022-10-08T05:41:35.040Z,13.40
2022-10-08T05:44:03.946Z,13.50
2022-10-08T05:46:33.163Z,13.50
2022-10-08T05:49:02.742Z,13.60
2022-10-08T05:51:30.223Z,13.60
2022-10-08T05:54:00.914Z,13.60
2022-10-08T05:56:29.147Z,13.70
2022-10-08T05:58:56.499Z,13.70
2022-10-08T06:01:28.082Z,13.70
2022-10-08T06:03:58.383Z,13.80
2022-10-08T06:06:25.966Z,13.80
2022-10-08T06:08:58.698Z,13.80
2022-10-08T06:11:27.315Z,13.90
2022-10-08T06:13:56.593Z,13.90
2022-10-08T06:16:24.369Z,13.90
2022-10-08T06:18:51.837Z,13.90
2022-10-08T06:21:22.273Z,13.90
2022-10-08T06:23:54.699Z,13.90
2022-10-08T06:26:26.084Z,14.00
2022-10-08T06:28:53.874Z,14.00
2022-10-08T06:31:21.694Z,14.00
2022-10-08T06:33:49.241Z,14.10
2022-10-08T06:36:18.150Z,14.10
2022-10-08T06:39:01.739Z,14.20
2022-10-08T06:41:35.431Z,14.20
2022-10-08T06:44:04.870Z,14.20
2022-10-08T06:46:33.159Z,14.20
2022-10-08T06:49:02.247Z,14.20
2022-10-08T06:51:30.059Z,14.10
2022-10-08T06:54:05.758Z,14.20
2022-10-08T06:56:36.226Z,14.20
2022-10-08T06:59:05.013Z,14.20
2022-10-08T07:01:34.157Z,14.10
2022-10-08T07:04:03.236Z,14.10
2022-10-08T07:06:30.616Z,14.10
2022-10-08T07:09:00.604Z,14.20
2022-10-08T07:11:30.188Z,14.20
2022-10-08T07:13:58.238Z,14.30
2022-10-08T07:16:27.129Z,14.40
2022-10-08T07:18:58.380Z,14.30
2022-10-08T07:21:27.094Z,14.50
2022-10-08T07:23:54.473Z,14.40
2022-10-08T07:26:24.357Z,14.50
2022-10-08T07:28:53.308Z,14.60
2022-10-08T07:31:23.553Z,14.60
2022-10-08T07:33:51.255Z,14.50
2022-10-08T07:36:20.723Z,14.60
2022-10-08T07:38:48.641Z,14.60
2022-10-08T07:41:16.042Z,14.60
2022-10-08T07:43:43.518Z,14.70
2022-10-08T07:46:12.215Z,14.80
2022-10-08T07:48:42.112Z,14.80
2022-10-08T07:51:15.725Z,14.90
2022-10-08T07:53:44.219Z,15.10
2022-10-08T07:56:16.070Z,15.30
2022-10-08T07:58:43.886Z,15.40
2022-10-08T08:01:17.737Z,15.30
2022-10-08T08:03:45.486Z,15.30
2022-10-08T08:06:16.634Z,15.20
2022-10-08T08:08:45.859Z,15.10
2022-10-08T08:11:17.281Z,15.30
2022-10-08T08:13:44.905Z,15.50
2022-10-08T08:16:18.010Z,15.60
2022-10-08T08:18:49.635Z,15.70
2022-10-08T08:21:22.978Z,15.70
2022-10-08T08:23:53.058Z,15.80
2022-10-08T08:26:27.165Z,15.80
2022-10-08T08:29:02.323Z,15.90
2022-10-08T08:31:32.507Z,16.00
2022-10-08T08:34:09.337Z,16.10
2022-10-08T08:36:39.484Z,16.20
2022-10-08T08:39:09.625Z,16.30
2022-10-08T08:42:08.011Z,16.30
2022-10-08T08:44:42.960Z,16.40
2022-10-08T08:47:25.406Z,16.40
2022-10-08T08:50:01.939Z,16.50
2022-10-08T08:52:34.190Z,16.70
2022-10-08T08:55:02.317Z,16.90
2022-10-08T08:57:52.941Z,17.10
2022-10-08T09:00:24.041Z,17.30
2022-10-08T09:03:34.795Z,17.40
2022-10-08T09:06:09.889Z,17.40
2022-10-08T09:09:00.936Z,17.30
2022-10-08T09:11:30.246Z,17.30
2022-10-08T09:14:10.750Z,17.50
2022-10-08T09:16:39.079Z,17.70
2022-10-08T09:19:06.995Z,17.90
2022-10-08T09:21:34.744Z,18.00
2022-10-08T09:24:03.117Z,18.30
2022-10-08T09:26:35.367Z,18.40
2022-10-08T09:29:05.359Z,18.70
2022-10-08T09:31:46.809Z,18.70
2022-10-08T09:34:15.680Z,19.00
2022-10-08T09:36:52.466Z,18.90
2022-10-08T09:39:30.373Z,19.00
2022-10-08T09:42:06.901Z,19.10
2022-10-08T09:44:45.894Z,19.20
2022-10-08T09:47:15.967Z,19.20
2022-10-08T09:49:45.335Z,19.50
2022-10-08T09:52:27.140Z,19.70
2022-10-08T09:55:15.707Z,19.70
2022-10-08T09:57:55.364Z,19.90
2022-10-08T10:00:36.037Z,20.10
2022-10-08T10:03:15.283Z,20.10
2022-10-08T10:05:42.814Z,20.20
2022-10-08T10:08:41.943Z,20.40
2022-10-08T10:11:15.091Z,20.60
2022-10-08T10:13:42.714Z,21.00
2022-10-08T10:16:36.697Z,21.00
2022-10-08T10:19:21.307Z,21.10
2022-10-08T10:22:29.354Z,21.50
2022-10-08T10:25:11.995Z,21.50
2022-10-08T10:27:46.808Z,21.30
2022-10-08T10:30:22.630Z,21.20
2022-10-08T10:32:52.963Z,21.50
2022-10-08T10:35:32.494Z,21.40
2022-10-08T10:38:15.148Z,21.70
2022-10-08T10:40:45.922Z,21.80
2022-10-08T10:43:19.299Z,21.80
2022-10-08T10:45:56.249Z,22.20
2022-10-08T10:48:23.683Z,22.30
2022-10-08T10:51:08.529Z,22.70
2022-10-08T10:53:52.770Z,23.00
2022-10-08T10:56:22.115Z,23.00
2022-10-08T10:59:07.231Z,23.30
2022-10-08T11:01:53.430Z,23.30
2022-10-08T11:04:51.059Z,23.80
2022-10-08T11:07:49.233Z,23.80
2022-10-08T11:10:45.893Z,24.60
2022-10-08T11:13:22.374Z,24.70
2022-10-08T11:16:17.926Z,24.90
2022-10-08T11:18:49.395Z,24.70
2022-10-08T11:21:46.344Z,24.60
2022-10-08T11:24:41.482Z,24.60
2022-10-08T11:27:54.001Z,24.70
2022-10-08T11:30:43.761Z,24.30
2022-10-08T11:33:15.682Z,24.70
2022-10-08T11:35:50.319Z,25.10
2022-10-08T11:38:44.894Z,25.20
2022-10-08T11:41:33.048Z,24.80
2022-10-08T11:44:02.703Z,25.10
2022-10-08T11:46:32.949Z,25.00
2022-10-08T11:49:13.656Z,25.40
2022-10-08T11:51:41.014Z,25.10
2022-10-08T11:54:34.485Z,24.10
2022-10-08T11:57:19.266Z,23.80
2022-10-08T12:00:08.521Z,23.50
2022-10-08T12:02:43.125Z,23.50
2022-10-08T12:05:22.763Z,24.20
2022-10-08T12:07:54.201Z,24.60
2022-10-08T12:10:30.070Z,24.80
2022-10-08T12:13:01.719Z,24.50
2022-10-08T12:15:30.401Z,23.90
2022-10-08T12:18:10.901Z,24.00
2022-10-08T12:20:42.239Z,24.30
2022-10-08T12:23:29.005Z,24.30
2022-10-08T12:26:11.574Z,24.20
2022-10-08T12:34:58.229Z,24.10
2022-10-08T12:37:47.449Z,24.10
2022-10-08T12:40:45.597Z,24.10
2022-10-08T12:43:36.121Z,24.50
2022-10-08T12:46:28.633Z,24.50
2022-10-08T12:49:24.434Z,24.50
2022-10-08T12:52:05.914Z,23.90
2022-10-08T12:54:34.682Z,24.00
2022-10-08T12:57:23.509Z,24.10
2022-10-08T12:59:55.541Z,24.30
2022-10-08T13:02:47.238Z,24.30
2022-10-08T13:08:47.151Z,23.40
2022-10-08T13:11:19.841Z,23.00
2022-10-08T13:13:52.299Z,22.90
2022-10-08T13:16:25.942Z,23.60
2022-10-08T13:18:58.439Z,23.40
2022-10-08T13:21:38.185Z,23.60
2022-10-08T13:24:17.667Z,23.70
2022-10-08T13:26:52.185Z,23.40
2022-10-08T13:29:28.875Z,23.50
2022-10-08T13:32:19.431Z,23.10
2022-10-08T13:34:59.072Z,22.80
2022-10-08T13:37:41.632Z,22.80
2022-10-08T13:40:13.320Z,22.80
2022-10-08T13:42:54.430Z,22.80
2022-10-08T13:45:29.187Z,22.60
2022-10-08T13:47:59.181Z,22.50
2022-10-08T13:50:28.569Z,22.60
2022-10-08T13:53:04.722Z,22.60
2022-10-08T13:55:34.868Z,22.60
2022-10-08T13:58:06.011Z,22.70
2022-10-08T14:00:37.004Z,22.70
2022-10-08T14:03:07.399Z,23.10
2022-10-08T14:05:40.330Z,23.20
2022-10-08T14:08:25.310Z,23.50
2022-10-08T14:10:57.782Z,23.60
2022-10-08T14:13:28.941Z,23.30
2022-10-08T14:15:58.242Z,23.10
2022-10-08T14:18:29.362Z,23.00
2022-10-08T14:20:58.779Z,23.10
2022-10-08T14:23:28.814Z,24.00
2022-10-08T14:25:58.876Z,26.20
2022-10-08T14:28:27.760Z,27.40
2022-10-08T14:30:57.976Z,27.80
2022-10-08T14:33:28.811Z,27.70
2022-10-08T14:35:58.928Z,26.40
2022-10-08T14:38:28.427Z,25.60
2022-10-08T14:40:56.365Z,24.80
2022-10-08T14:43:28.704Z,24.90
2022-10-08T14:45:58.471Z,24.50
2022-10-08T14:48:26.451Z,23.90
2022-10-08T14:50:58.314Z,23.70
2022-10-08T14:53:29.022Z,25.20
2022-10-08T14:56:11.438Z,25.20
2022-10-08T14:58:50.828Z,25.30
2022-10-08T15:01:19.435Z,25.10
2022-10-08T15:03:47.214Z,24.10
2022-10-08T15:06:19.757Z,23.30
2022-10-08T15:08:51.998Z,23.00
2022-10-08T15:11:20.192Z,22.40
2022-10-08T15:13:48.214Z,22.00
2022-10-08T15:16:20.003Z,21.70
2022-10-08T15:18:52.513Z,21.40
2022-10-08T15:21:20.245Z,21.20
2022-10-08T15:23:51.681Z,21.00
2022-10-08T15:26:20.199Z,20.80
2022-10-08T15:28:53.095Z,20.70
2022-10-08T15:31:25.861Z,20.40
2022-10-08T15:33:58.916Z,20.30
2022-10-08T15:36:29.574Z,20.20
2022-10-08T15:39:17.425Z,20.20
2022-10-08T15:41:53.057Z,20.00
2022-10-08T15:44:23.526Z,19.90
2022-10-08T15:47:05.040Z,19.90
2022-10-08T15:49:51.965Z,19.80
2022-10-08T15:55:03.238Z,19.50
2022-10-08T15:57:32.962Z,19.40
2022-10-08T16:00:09.027Z,19.40
2022-10-08T16:02:59.199Z,19.40
2022-10-08T16:05:30.240Z,19.30
2022-10-08T16:07:58.173Z,19.30
2022-10-08T16:10:29.539Z,19.20
2022-10-08T16:13:00.417Z,19.10
2022-10-08T16:15:35.839Z,19.10
2022-10-08T16:18:06.662Z,19.00
2022-10-08T16:20:37.034Z,18.90
2022-10-08T16:23:06.243Z,18.90
2022-10-08T16:25:36.478Z,18.80
2022-10-08T16:28:07.235Z,18.60
2022-10-08T16:30:38.311Z,18.50
2022-10-08T16:33:06.434Z,18.40
2022-10-08T16:35:37.698Z,18.30
2022-10-08T16:38:07.586Z,18.20
2022-10-08T16:40:36.127Z,18.10
2022-10-08T16:43:06.728Z,18.00
2022-10-08T16:45:39.907Z,17.90
2022-10-08T16:48:08.507Z,17.80
2022-10-08T16:50:48.920Z,17.70
2022-10-08T16:56:09.226Z,17.50
2022-10-08T16:58:41.692Z,17.40
2022-10-08T17:01:13.270Z,17.30
2022-10-08T17:03:44.434Z,17.10
2022-10-08T17:06:12.876Z,17.00
2022-10-08T17:08:40.630Z,17.00
2022-10-08T17:11:10.631Z,16.90
2022-10-08T17:13:45.967Z,16.70
2022-10-08T17:16:14.076Z,16.70
2022-10-08T17:18:45.414Z,16.70
2022-10-08T17:21:14.489Z,16.60
2022-10-08T17:23:43.439Z,16.60
2022-10-08T17:26:13.671Z,16.60
2022-10-08T17:28:44.054Z,16.50
2022-10-08T17:31:21.441Z,16.30
2022-10-08T17:33:50.747Z,16.30
2022-10-08T17:36:29.020Z,16.20
2022-10-08T17:39:13.203Z,16.10
2022-10-08T17:44:28.563Z,16.10
2022-10-08T17:46:57.683Z,16.10
2022-10-08T17:49:27.938Z,16.00
2022-10-08T17:51:59.194Z,16.00
2022-10-08T17:54:29.521Z,16.00
2022-10-08T17:56:59.013Z,15.90
2022-10-08T17:59:29.842Z,15.90
2022-10-08T18:01:57.844Z,15.90
2022-10-08T18:04:28.102Z,15.90
2022-10-08T18:07:03.294Z,16.00
2022-10-08T18:09:33.775Z,16.00
2022-10-08T18:12:08.516Z,16.10
2022-10-08T18:14:43.995Z,16.10
2022-10-08T18:19:58.039Z,16.20
2022-10-08T18:22:29.152Z,16.20
2022-10-08T18:25:02.385Z,16.20
2022-10-08T18:27:34.200Z,16.30
2022-10-08T18:30:04.749Z,16.30
2022-10-08T18:32:33.588Z,16.30
2022-10-08T18:35:01.405Z,16.30
2022-10-08T18:37:33.861Z,16.30
2022-10-08T18:40:02.656Z,16.20
2022-10-08T18:42:34.261Z,16.20
2022-10-08T18:45:04.777Z,16.20
2022-10-08T18:47:34.775Z,16.20
2022-10-08T18:50:03.660Z,16.20
2022-10-08T18:52:34.616Z,16.20
2022-10-08T18:55:05.171Z,16.20
2022-10-08T18:57:36.790Z,16.20
2022-10-08T19:00:08.093Z,16.20
2022-10-08T19:02:39.003Z,16.20
2022-10-08T19:05:08.456Z,16.10
2022-10-08T19:07:37.502Z,16.10
2022-10-08T19:10:05.877Z,16.10
2022-10-08T19:12:36.987Z,16.10
2022-10-08T19:15:07.786Z,16.10
2022-10-08T19:17:43.204Z,16.10
2022-10-08T19:20:11.285Z,16.10
2022-10-08T19:22:41.528Z,16.00
2022-10-08T19:25:10.290Z,16.00
2022-10-08T19:27:45.759Z,16.00
2022-10-08T19:30:16.114Z,16.10
2022-10-08T19:32:49.089Z,16.10
2022-10-08T19:35:20.300Z,16.10
2022-10-08T19:40:33.599Z,16.10
2022-10-08T19:43:04.659Z,16.10
2022-10-08T19:45:40.143Z,16.10
2022-10-08T19:48:11.047Z,16.10
2022-10-08T19:50:50.846Z,16.00
2022-10-08T19:53:21.089Z,16.00
2022-10-08T19:55:51.521Z,16.10
2022-10-08T19:58:21.183Z,16.10
2022-10-08T20:01:04.334Z,16.10
2022-10-08T20:03:35.099Z,16.20
2022-10-08T20:06:10.524Z,16.20
2022-10-08T20:08:39.822Z,16.20
2022-10-08T20:11:10.370Z,16.20
2022-10-08T20:13:42.183Z,16.20
2022-10-08T20:16:19.831Z,16.20
2022-10-08T20:18:55.465Z,16.30
2022-10-08T20:21:24.092Z,16.30
2022-10-08T20:23:53.937Z,16.30
2022-10-08T20:26:29.606Z,16.30
2022-10-08T20:28:59.722Z,16.30
2022-10-08T20:31:31.124Z,16.30
2022-10-08T20:34:13.994Z,16.30
2022-10-08T20:36:45.428Z,16.30
2022-10-08T20:39:17.965Z,16.30
2022-10-08T20:41:48.643Z,16.40
2022-10-08T20:44:16.915Z,16.40
2022-10-08T20:46:52.315Z,16.40
2022-10-08T20:49:20.244Z,16.30
2022-10-08T20:51:51.376Z,16.30
2022-10-08T20:54:22.138Z,16.30
2022-10-08T20:56:52.991Z,16.30
2022-10-08T20:59:25.568Z,16.30
2022-10-08T21:01:55.085Z,16.30
2022-10-08T21:04:23.291Z,16.30
2022-10-08T21:06:52.277Z,16.30
2022-10-08T21:09:24.430Z,16.30
2022-10-08T21:11:55.997Z,16.20
2022-10-08T21:14:26.120Z,16.30
2022-10-08T21:16:56.746Z,16.30
2022-10-08T21:22:10.761Z,16.30
2022-10-08T21:24:40.808Z,16.20
2022-10-08T21:27:12.414Z,16.20
2022-10-08T21:29:40.929Z,16.20
2022-10-08T21:32:10.611Z,16.20
2022-10-08T21:34:39.240Z,16.20
2022-10-08T21:37:13.954Z,16.20
2022-10-08T21:39:45.450Z,16.20
2022-10-08T21:42:14.080Z,16.20
2022-10-08T21:44:45.972Z,16.10
2022-10-08T21:47:15.523Z,16.10
2022-10-08T21:49:47.094Z,16.10
2022-10-08T21:52:15.211Z,16.10
2022-10-08T21:54:44.644Z,16.10
2022-10-08T21:57:16.284Z,16.10
2022-10-08T21:59:45.269Z,16.10
2022-10-08T22:02:16.359Z,16.10
2022-10-08T22:04:45.199Z,16.10
2022-10-08T22:07:13.938Z,16.00
2022-10-08T22:09:44.882Z,15.90
2022-10-08T22:12:13.607Z,16.00
2022-10-08T22:14:44.671Z,16.00
2022-10-08T22:17:14.620Z,16.00
2022-10-08T22:19:45.632Z,16.00
2022-10-08T22:22:14.134Z,16.00
2022-10-08T22:24:44.917Z,15.90
2022-10-08T22:27:14.378Z,15.90
2022-10-08T22:29:45.854Z,15.90
2022-10-08T22:32:14.432Z,15.90
2022-10-08T22:34:45.616Z,15.90
2022-10-08T22:37:14.453Z,15.90
2022-10-08T22:39:43.255Z,15.90
2022-10-08T22:42:14.444Z,15.90
2022-10-08T22:44:45.646Z,15.90
2022-10-08T22:47:16.427Z,15.90
2022-10-08T22:49:45.228Z,15.90
2022-10-08T22:52:14.650Z,15.90
2022-10-08T22:57:25.596Z,15.90
2022-10-08T22:59:54.213Z,15.90
2022-10-08T23:02:22.788Z,15.80
2022-10-08T23:04:51.634Z,15.90
2022-10-08T23:07:20.173Z,15.90
2022-10-08T23:09:50.494Z,15.90
2022-10-08T23:12:18.322Z,15.90
2022-10-08T23:14:50.363Z,15.90
2022-10-08T23:17:22.413Z,15.90
2022-10-08T23:19:52.614Z,15.90
2022-10-08T23:22:22.039Z,15.90
2022-10-08T23:24:52.817Z,15.90
2022-10-08T23:27:24.320Z,15.90
2022-10-08T23:29:53.211Z,15.90
2022-10-08T23:32:24.340Z,15.90
2022-10-08T23:34:53.226Z,15.90
2022-10-08T23:37:24.549Z,15.80
2022-10-08T23:39:57.663Z,15.80
2022-10-08T23:42:26.810Z,15.80
2022-10-08T23:44:57.558Z,15.80
2022-10-08T23:47:26.637Z,15.80
2022-10-08T23:49:55.398Z,15.80
2022-10-08T23:52:23.886Z,15.70
2022-10-08T23:54:52.720Z,15.80
2022-10-08T23:57:23.916Z,15.80
2022-10-08T23:59:55.010Z,15.80
